Time;durP1;ratioP1;P1;durP2;ratioP2;P2;SDS_P1;SDS_P2;PMS_P1;PMS_P2;Temp;Humidity;BMP_temperature;BMP_pressure;BME280_temperature;BME280_humidity;BME280_pressure;Samples;Min_cycle;Max_cycle;Signal;HPM_P1;HPM_P2
2022/05/09 00:00:29;;;;;;;;;22.00;19.00;;;;;13.66;86.85;100153.59;6281538;20;2489891;-49
2022/05/09 00:02:58;;;;;;;;;22.50;21.50;;;;;13.83;86.08;100160.59;6287680;20;2833660;-50
2022/05/09 00:05:29;;;;;;;;;22.50;22.50;;;;;13.71;86.29;100161.41;6283001;20;2839991;-52
2022/05/09 00:07:58;;;;;;;;;19.50;19.50;;;;;13.94;85.58;100162.56;6284933;20;2825723;-53
2022/05/09 00:10:27;;;;;;;;;22.50;22.50;;;;;13.76;85.94;100153.84;6284791;20;2833770;-51
2022/05/09 00:12:56;;;;;;;;;21.50;21.50;;;;;13.84;85.82;100157.75;6284591;20;2844050;-47
2022/05/09 00:15:25;;;;;;;;;25.00;22.00;;;;;13.90;84.75;100155.63;6281832;20;2832740;-57
2022/05/09 00:17:54;;;;;;;;;20.00;20.00;;;;;13.81;85.80;100155.28;6283855;20;2841919;-48
2022/05/09 00:20:22;;;;;;;;;14.67;14.67;;;;;13.93;85.09;100152.69;6283520;20;2806656;-52
2022/05/09 00:22:55;;;;;;;;;21.50;19.00;;;;;13.69;85.53;100155.22;6314800;20;2832637;-53
2022/05/09 00:25:26;;;;;;;;;21.00;19.50;;;;;13.84;86.04;100155.06;6284019;20;2496213;-47
2022/05/09 00:27:55;;;;;;;;;21.00;20.50;;;;;13.56;86.83;100152.47;6282903;20;2835670;-48
2022/05/09 00:30:23;;;;;;;;;19.00;19.00;;;;;13.49;87.83;100153.88;6280912;20;2500366;-50
2022/05/09 00:32:52;;;;;;;;;20.67;18.67;;;;;13.54;87.39;100155.31;6284572;20;2841946;-49
2022/05/09 00:35:20;;;;;;;;;22.50;22.00;;;;;13.50;87.36;100159.16;6312026;20;2498201;-50
2022/05/09 00:37:48;;;;;;;;;25.00;22.50;;;;;13.25;89.14;100154.50;6277673;20;2494028;-50
2022/05/09 00:40:17;;;;;;;;;19.67;18.00;;;;;13.51;87.35;100160.03;6284013;20;3563932;-52
2022/05/09 00:42:53;;;;;;;;;21.00;19.00;;;;;13.43;88.36;100167.75;6283654;20;2491992;-51
2022/05/09 00:45:26;;;;;;;;;20.00;18.00;;;;;13.68;86.78;100167.88;6283243;20;2835785;-57
2022/05/09 00:47:54;;;;;;;;;17.00;16.50;;;;;13.70;86.14;100162.38;6282763;20;2500345;-56
2022/05/09 00:50:30;;;;;;;;;21.00;21.00;;;;;13.44;88.08;100166.81;6280799;20;2837756;-48
2022/05/09 00:53:07;;;;;;;;;18.50;18.50;;;;;13.63;86.98;100164.59;6280838;20;2496098;-50
2022/05/09 00:55:47;;;;;;;;;19.00;17.00;;;;;13.77;85.86;100167.25;6277763;20;2496093;-57
2022/05/09 00:58:24;;;;;;;;;21.00;18.50;;;;;13.68;85.82;100167.88;6278969;20;2492058;-50
2022/05/09 01:00:56;;;;;;;;;21.00;19.50;;;;;13.43;87.85;100173.13;6276353;20;2500262;-55
2022/05/09 01:03:52;;;;;;;;;19.00;16.00;;;;;13.48;87.28;100165.63;6279059;20;2494018;-54
2022/05/09 01:06:19;;;;;;;;;18.00;18.00;;;;;13.49;87.07;100161.97;6280127;20;2483695;-57
2022/05/09 01:08:48;;;;;;;;;21.00;19.50;;;;;13.34;87.47;100167.38;6282903;20;2834714;-52
2022/05/09 01:11:25;;;;;;;;;22.00;18.00;;;;;13.49;86.72;100167.38;6282708;20;2837783;-49
2022/05/09 01:14:22;;;;;;;;;22.00;22.00;;;;;13.43;86.96;100165.06;6281717;20;2845077;-58
2022/05/09 01:16:59;;;;;;;;;20.00;18.50;;;;;13.47;86.43;100174.69;6281750;20;2500341;-48
2022/05/09 01:19:39;;;;;;;;;18.50;18.50;;;;;13.32;87.01;100177.44;6278379;20;2837809;-57
2022/05/09 01:22:31;;;;;;;;;21.50;20.00;;;;;13.37;87.20;100180.66;6284355;20;2837909;-57
2022/05/09 01:25:03;;;;;;;;;20.00;20.00;;;;;13.19;87.76;100181.84;6281316;20;2496135;-50
2022/05/09 01:27:35;;;;;;;;;18.67;18.33;;;;;13.31;87.02;100175.69;6282349;20;3571119;-50
2022/05/09 01:30:22;;;;;;;;;19.00;18.00;;;;;13.26;87.74;100176.91;6282210;20;3566891;-49
2022/05/09 01:33:04;;;;;;;;;18.50;17.00;;;;;13.26;87.90;100176.91;6279799;20;2483577;-51
2022/05/09 01:36:18;;;;;;;;;19.50;19.50;;;;;13.07;87.97;100174.56;6281369;20;2828531;-52
2022/05/09 01:39:01;;;;;;;;;17.50;16.50;;;;;13.04;88.65;100174.75;6275623;20;2825371;-56
2022/05/09 01:41:46;;;;;;;;;17.00;16.00;;;;;13.27;87.97;100178.66;6283796;20;2824736;-49
2022/05/09 01:44:17;;;;;;;;;21.50;18.50;;;;;13.02;88.81;100173.97;6279452;20;2836802;-51
2022/05/09 01:49:36;;;;;;;;;22.50;20.00;;;;;13.12;88.92;100169.72;6282333;20;2834730;-49
2022/05/09 01:52:14;;;;;;;;;24.67;22.33;;;;;13.21;88.43;100176.34;6282698;20;3585664;-53
2022/05/09 01:54:44;;;;;;;;;23.00;22.00;;;;;12.90;89.80;100181.00;6277991;20;2848181;-49
2022/05/09 01:57:13;;;;;;;;;25.00;22.50;;;;;12.92;89.92;100168.28;6281297;20;2840862;-49
2022/05/09 01:59:44;;;;;;;;;22.50;20.50;;;;;13.02;89.37;100172.16;6282071;20;2849421;-50
2022/05/09 02:02:18;;;;;;;;;21.50;19.00;;;;;12.85;90.17;100181.31;6280750;20;2483596;-48
2022/05/09 02:04:47;;;;;;;;;21.67;19.67;;;;;12.59;92.48;100177.56;6278920;20;2842050;-52
2022/05/09 02:07:19;;;;;;;;;19.50;19.00;;;;;12.57;92.82;100175.91;6314539;20;2837813;-51
2022/05/09 02:09:50;;;;;;;;;18.00;18.00;;;;;12.70;92.43;100172.34;6277496;20;2828505;-53
2022/05/09 02:12:21;;;;;;;;;20.50;18.00;;;;;12.58;92.31;100174.94;6281070;20;2837877;-53
2022/05/09 02:14:49;;;;;;;;;19.00;19.00;;;;;12.43;93.50;100171.38;6278053;20;2500307;-53
2022/05/09 02:17:18;;;;;;;;;20.00;19.00;;;;;12.46;93.46;100177.44;6280848;20;2840740;-52
2022/05/09 02:19:47;;;;;;;;;21.50;18.50;;;;;12.67;91.32;100177.94;6278593;20;2835747;-52
2022/05/09 02:22:15;;;;;;;;;24.00;22.50;;;;;12.76;90.77;100179.19;6278568;20;2500240;-53
2022/05/09 02:24:43;;;;;;;;;15.50;13.00;;;;;12.68;90.11;100176.97;6280616;20;2797137;-50
2022/05/09 02:27:11;;;;;;;;;22.00;19.00;;;;;12.83;90.10;100185.06;6286208;20;2491958;-53
2022/05/09 02:29:42;;;;;;;;;15.50;15.50;;;;;12.53;90.88;100177.91;6279538;20;2500301;-53
2022/05/09 02:32:13;;;;;;;;;13.40;13.00;;;;;12.56;91.21;100177.75;6308277;20;2791911;-53
2022/05/09 02:34:41;;;;;;;;;23.00;22.00;;;;;12.17;92.85;100175.66;6280327;20;2483602;-51
2022/05/09 02:37:09;;;;;;;;;21.00;20.50;;;;;12.46;92.29;100182.81;6278641;20;2496142;-51
2022/05/09 02:39:37;;;;;;;;;12.00;9.00;;;;;12.47;92.72;100184.53;6280404;20;2781022;-49
2022/05/09 02:42:06;;;;;;;;;19.00;17.00;;;;;12.47;92.58;100179.16;6280324;20;2829529;-53
2022/05/09 02:44:36;;;;;;;;;23.00;21.00;;;;;12.42;92.80;100185.78;6275798;20;2500311;-51
2022/05/09 02:47:06;;;;;;;;;21.50;17.50;;;;;12.65;92.21;100189.78;6278880;20;2833604;-51
2022/05/09 02:49:33;;;;;;;;;24.50;23.00;;;;;12.67;91.57;100185.16;6280236;20;2498335;-52
2022/05/09 02:52:04;;;;;;;;;21.00;19.00;;;;;12.73;91.38;100190.16;6281109;20;2844008;-53
2022/05/09 02:54:32;;;;;;;;;20.00;19.00;;;;;12.57;92.02;100192.06;6279027;20;2500319;-49
2022/05/09 02:57:01;;;;;;;;;17.00;17.00;;;;;12.44;93.12;100187.44;6277734;20;2829444;-51
2022/05/09 02:59:29;;;;;;;;;20.50;20.50;;;;;12.52;92.67;100190.53;6277662;20;2487803;-49
2022/05/09 03:01:57;;;;;;;;;20.00;18.00;;;;;12.40;92.96;100188.59;6277449;20;2491984;-53
2022/05/09 03:04:40;;;;;;;;;20.00;19.00;;;;;12.40;93.63;100193.09;6283737;20;2841912;-50
2022/05/09 03:07:16;;;;;;;;;17.00;17.00;;;;;12.20;94.86;100192.47;6281651;20;2820067;-52
2022/05/09 03:09:48;;;;;;;;;19.00;19.00;;;;;12.13;95.40;100195.63;6278987;20;2842023;-52
2022/05/09 03:12:19;;;;;;;;;19.67;17.00;;;;;12.23;94.99;100203.06;6280982;20;3562720;-49
2022/05/09 03:14:49;;;;;;;;;17.33;17.33;;;;;12.44;93.93;100200.91;6279879;20;3551303;-51
2022/05/09 03:17:17;;;;;;;;;21.00;19.50;;;;;12.13;95.42;100195.63;6311491;20;2828362;-52
2022/05/09 03:19:45;;;;;;;;;21.00;20.00;;;;;12.47;93.27;100206.09;6281441;20;2491957;-49
2022/05/09 03:22:14;;;;;;;;;18.33;17.67;;;;;12.78;91.56;100203.34;6283683;20;3557523;-50
2022/05/09 03:24:42;;;;;;;;;19.00;18.00;;;;;12.82;91.48;100208.47;6288365;20;2832566;-51
2022/05/09 03:27:14;;;;;;;;;16.33;14.00;;;;;12.89;90.94;100209.78;6287104;20;3529458;-53
2022/05/09 03:29:43;;;;;;;;;20.00;15.33;;;;;12.86;90.60;100212.69;6313287;20;3552417;-56
2022/05/09 03:32:12;;;;;;;;;20.00;16.00;;;;;13.01;90.24;100215.38;6287629;20;2819009;-57
2022/05/09 03:34:39;;;;;;;;;16.00;16.00;;;;;12.88;90.21;100209.91;6289533;20;2816970;-57
2022/05/09 03:37:08;;;;;;;;;20.00;15.00;;;;;13.01;90.01;100220.78;6281601;20;2492008;-57
2022/05/09 03:39:37;;;;;;;;;18.00;15.33;;;;;12.94;90.82;100215.75;6282989;20;3545031;-57
2022/05/09 03:42:09;;;;;;;;;16.33;16.00;;;;;12.82;92.06;100216.53;6285831;20;3550223;-55
2022/05/09 03:44:37;;;;;;;;;17.00;17.00;;;;;12.94;91.06;100221.16;6281536;20;3559680;-57
2022/05/09 03:47:05;;;;;;;;;18.00;18.00;;;;;12.86;91.09;100222.59;6288679;20;2835741;-57
2022/05/09 03:49:34;;;;;;;;;16.33;16.33;;;;;13.09;91.35;100218.47;6284542;20;3551283;-52
2022/05/09 03:52:02;;;;;;;;;16.50;16.50;;;;;13.16;91.14;100225.16;6315501;20;2491937;-58
2022/05/09 03:54:30;;;;;;;;;16.50;16.00;;;;;13.26;91.03;100226.34;6284961;20;2821293;-56
2022/05/09 03:56:59;;;;;;;;;17.00;17.00;;;;;13.16;90.40;100231.47;6284797;20;2829536;-50
2022/05/09 03:59:26;;;;;;;;;17.50;17.50;;;;;13.33;89.81;100235.78;6283985;20;2500355;-51
2022/05/09 04:01:56;;;;;;;;;17.00;16.00;;;;;13.57;88.69;100224.38;6281612;20;3549265;-52
2022/05/09 04:04:25;;;;;;;;;15.00;14.00;;;;;13.71;87.67;100227.03;6310073;20;2805549;-53
2022/05/09 04:06:53;;;;;;;;;15.00;12.00;;;;;13.88;86.74;100227.75;6286960;20;2806661;-56
2022/05/09 04:09:22;;;;;;;;;17.00;15.67;;;;;14.14;85.62;100234.97;6285187;20;3549216;-53
2022/05/09 04:11:50;;;;;;;;;9.00;7.00;;;;;14.79;82.55;100233.25;6320371;20;2732602;-53
2022/05/09 04:16:49;;;;;;;;;15.50;11.00;;;;;14.56;83.42;100240.25;6286295;20;2794108;-51
2022/05/09 04:17:10;;;;;;;;;18.00;16.33;;;;;15.15;81.22;100233.34;6284646;20;3560767;-53
2022/05/09 04:19:39;;;;;;;;;17.00;15.00;;;;;15.14;80.57;100245.16;6281502;20;2825337;-51
2022/05/09 04:22:08;;;;;;;;;15.33;14.00;;;;;14.85;81.25;100246.31;6285064;20;3531472;-55
2022/05/09 04:24:37;;;;;;;;;13.67;13.33;;;;;14.68;82.59;100251.09;6316657;20;3522094;-48
2022/05/09 04:27:05;;;;;;;;;14.00;14.00;;;;;14.73;82.65;100252.63;6318277;20;2800270;-52
2022/05/09 04:29:33;;;;;;;;;17.00;17.00;;;;;14.42;84.13;100244.75;6287243;20;2824194;-50
2022/05/09 04:32:01;;;;;;;;;16.00;16.00;;;;;14.46;85.35;100253.53;6282544;20;2494528;-50
2022/05/09 04:34:30;;;;;;;;;16.00;13.67;;;;;14.76;83.07;100257.81;6285691;20;3539891;-49
2022/05/09 04:36:58;;;;;;;;;14.50;13.00;;;;;14.75;83.94;100256.94;6284373;20;2797292;-52
2022/05/09 04:39:27;;;;;;;;;17.00;14.00;;;;;14.75;84.18;100266.91;6283517;20;3542976;-54
2022/05/09 04:41:55;;;;;;;;;16.00;16.00;;;;;15.07;83.26;100268.19;6282095;20;2500292;-54
2022/05/09 04:44:26;;;;;;;;;14.33;14.33;;;;;14.89;83.55;100264.06;6282996;20;3537749;-51
2022/05/09 04:46:54;;;;;;;;;17.33;13.00;;;;;15.07;82.86;100262.78;6283881;20;3543977;-51
2022/05/09 04:49:23;;;;;;;;;13.00;13.00;;;;;15.07;82.61;100270.88;6280511;20;2797426;-56
2022/05/09 04:51:52;;;;;;;;;14.33;12.33;;;;;15.23;83.01;100265.25;6314490;20;3525279;-51
2022/05/09 04:54:19;;;;;;;;;17.50;15.00;;;;;15.26;82.20;100272.28;6306632;20;2485860;-50
2022/05/09 04:56:47;;;;;;;;;15.50;14.00;;;;;15.55;81.61;100262.91;6279704;20;2803622;-53
2022/05/09 04:59:16;;;;;;;;;44.50;37.50;;;;;15.93;79.51;100272.81;6275671;20;2847162;-48
2022/05/09 05:01:44;;;;;;;;;16.67;16.67;;;;;16.60;76.59;100268.66;6283489;20;3564813;-51
2022/05/09 05:04:14;;;;;;;;;11.50;11.50;;;;;16.42;77.23;100270.94;6311340;20;2798174;-54
2022/05/09 05:06:41;;;;;;;;;17.00;14.50;;;;;16.27;77.61;100267.53;6281647;20;2806658;-50
2022/05/09 05:09:11;;;;;;;;;13.33;13.00;;;;;16.05;78.95;100272.88;6278253;20;3512790;-53
2022/05/09 05:11:39;;;;;;;;;16.00;15.00;;;;;16.00;79.69;100274.06;6316762;20;2819009;-50
2022/05/09 05:14:06;;;;;;;;;14.50;13.50;;;;;16.48;78.22;100280.44;6282694;20;2494219;-52
2022/05/09 05:19:20;;;;;;;;;14.00;13.00;;;;;16.53;77.79;100276.38;6285622;20;2801330;-51
2022/05/09 05:21:49;;;;;;;;;13.00;13.00;;;;;16.76;77.24;100290.03;6284129;20;3533592;-52
2022/05/09 05:24:20;;;;;;;;;17.33;15.00;;;;;16.80;77.88;100288.84;6314142;20;3556579;-53
2022/05/09 05:26:48;;;;;;;;;16.00;14.00;;;;;17.05;76.65;100277.78;6285111;20;2800287;-51
2022/05/09 05:29:17;;;;;;;;;14.67;13.33;;;;;17.38;75.25;100284.22;6283496;20;3533590;-51
2022/05/09 05:31:46;;;;;;;;;16.00;14.00;;;;;17.55;74.77;100300.00;6313932;20;3531483;-50
2022/05/09 05:34:15;;;;;;;;;13.00;12.33;;;;;17.82;73.90;100290.63;6315080;20;3535649;-53
2022/05/09 05:36:43;;;;;;;;;13.00;13.00;;;;;17.98;73.75;100292.94;6283645;20;2805508;-50
2022/05/09 05:39:15;;;;;;;;;13.00;11.50;;;;;18.34;72.46;100299.00;6287624;20;2795147;-54
2022/05/09 05:41:44;;;;;;;;;14.50;12.00;;;;;17.91;73.06;100297.16;6285869;20;2809622;-52
2022/05/09 05:44:13;;;;;;;;;10.00;9.00;;;;;18.37;72.02;100306.91;6284119;20;2770098;-52
2022/05/09 05:46:42;;;;;;;;;16.33;14.33;;;;;18.42;71.85;100296.50;6313936;20;3547187;-53
2022/05/09 05:49:11;;;;;;;;;16.67;14.67;;;;;18.98;71.00;100304.41;6283920;20;3536807;-49
2022/05/09 05:51:40;;;;;;;;;13.33;13.00;;;;;18.79;70.79;100299.69;6281054;20;3517930;-50
2022/05/09 05:54:07;;;;;;;;;16.00;14.00;;;;;18.96;69.45;100298.25;6317225;20;2803406;-52
2022/05/09 05:56:37;;;;;;;;;14.00;14.00;;;;;19.05;69.94;100311.03;6281501;20;3530974;-51
2022/05/09 05:59:09;;;;;;;;;15.33;14.00;;;;;19.00;69.29;100310.59;6282602;20;3536687;-51
2022/05/09 06:01:37;;;;;;;;;14.67;13.00;;;;;19.45;66.46;100314.84;6279305;20;3517027;-51
2022/05/09 06:04:05;;;;;;;;;11.00;10.00;;;;;19.41;67.02;100317.00;6291560;20;2671085;-50
2022/05/09 06:06:33;;;;;;;;;17.00;15.67;;;;;19.26;67.04;100316.47;6286886;20;2815906;-54
2022/05/09 06:09:05;;;;;;;;;12.33;11.00;;;;;19.34;67.19;100315.78;6313341;20;3508038;-53
2022/05/09 06:11:34;;;;;;;;;15.00;12.33;;;;;19.30;67.23;100317.94;6311946;20;3527318;-54
2022/05/09 06:14:04;;;;;;;;;12.00;12.00;;;;;20.17;65.95;100327.47;6285415;20;2794032;-48
2022/05/09 06:16:34;;;;;;;;;11.33;10.00;;;;;20.12;64.26;100321.56;6283421;20;2788944;-53
2022/05/09 06:19:04;;;;;;;;;11.00;10.00;;;;;19.78;64.41;100326.50;6311017;20;3512821;-52
2022/05/09 06:21:33;;;;;;;;;16.67;15.33;;;;;20.39;64.08;100324.47;6313957;20;3546116;-48
2022/05/09 06:24:06;;;;;;;;;16.67;13.00;;;;;20.04;61.88;100329.59;6282994;20;3544077;-51
2022/05/09 06:26:35;;;;;;;;;14.67;14.67;;;;;20.26;61.54;100329.34;6280608;20;3539816;-50
2022/05/09 06:29:06;;;;;;;;;15.33;13.67;;;;;20.79;60.70;100331.69;6284263;20;2788238;-53
2022/05/09 06:31:37;;;;;;;;;15.67;13.00;;;;;20.75;58.40;100334.88;6317771;20;2804509;-53
2022/05/09 06:34:11;;;;;;;;;12.00;11.00;;;;;21.19;56.71;100338.81;6316897;20;2788870;-52
2022/05/09 06:36:41;;;;;;;;;14.00;14.00;;;;;20.98;56.51;100338.13;6309241;20;3531787;-51
2022/05/09 06:39:12;;;;;;;;;12.67;12.67;;;;;20.95;58.22;100333.84;6277395;20;3537859;-52
2022/05/09 06:41:40;;;;;;;;;13.00;13.00;;;;;21.09;57.07;100340.72;6283688;20;2489859;-54
2022/05/09 06:44:09;;;;;;;;;13.67;13.67;;;;;20.90;57.09;100343.47;6313423;20;3525332;-55
2022/05/09 06:46:38;;;;;;;;;12.33;11.00;;;;;20.90;58.30;100343.47;6279858;20;3515941;-53
2022/05/09 06:49:07;;;;;;;;;11.67;11.00;;;;;21.50;58.19;100346.84;6281793;20;3513890;-54
2022/05/09 06:51:36;;;;;;;;;10.67;10.67;;;;;21.04;57.67;100345.78;6312413;20;3515981;-53
2022/05/09 06:54:05;;;;;;;;;12.67;12.00;;;;;21.59;57.20;100345.06;6281330;20;3529399;-54
2022/05/09 06:56:34;;;;;;;;;19.67;13.00;;;;;20.97;55.85;100348.22;6285252;20;3553478;-54
2022/05/09 06:59:03;;;;;;;;;15.33;14.33;;;;;21.84;55.54;100351.75;6283863;20;2489886;-54
2022/05/09 07:01:33;;;;;;;;;16.00;13.33;;;;;21.60;55.04;100357.75;6322252;20;3536855;-55
2022/05/09 07:04:01;;;;;;;;;15.67;14.00;;;;;22.10;54.72;100354.63;6317929;20;2491976;-54
2022/05/09 07:06:31;;;;;;;;;9.40;9.40;;;;;21.13;54.68;100350.34;6344712;20;2769118;-53
2022/05/09 07:08:59;;;;;;;;;13.33;13.00;;;;;20.72;56.00;100352.41;6292290;20;2795084;-56
2022/05/09 07:11:28;;;;;;;;;14.00;14.00;;;;;21.00;56.54;100350.63;6318583;20;2802339;-55
2022/05/09 07:13:57;;;;;;;;;12.67;12.67;;;;;20.95;56.27;100352.09;6285950;20;3533609;-54
2022/05/09 07:16:25;;;;;;;;;14.00;14.00;;;;;21.68;54.76;100355.13;6315482;20;3535664;-54
2022/05/09 07:18:59;;;;;;;;;12.33;11.67;;;;;21.36;53.89;100360.94;6290242;20;2791931;-54
2022/05/09 07:21:28;;;;;;;;;11.67;10.67;;;;;21.19;53.91;100355.22;6322726;20;2789881;-54
2022/05/09 07:23:57;;;;;;;;;13.33;13.33;;;;;21.99;52.92;100363.91;6317382;20;2483643;-56
2022/05/09 07:26:25;;;;;;;;;15.00;15.00;;;;;22.55;51.09;100353.78;6316376;20;2483712;-55
2022/05/09 07:28:54;;;;;;;;;14.67;13.67;;;;;22.65;50.42;100364.69;6319876;20;3522163;-54
2022/05/09 07:31:22;;;;;;;;;12.67;12.67;;;;;21.03;52.57;100355.81;6315484;20;2785753;-55
2022/05/09 07:33:51;;;;;;;;;4.00;4.00;;;;;21.16;52.09;100360.13;6321719;20;2745063;-52
2022/05/09 07:36:19;;;;;;;;;15.00;15.00;;;;;22.39;51.30;100359.09;6317728;20;2483579;-56
2022/05/09 07:38:48;;;;;;;;;13.33;11.33;;;;;22.07;50.90;100360.41;6319739;20;2791414;-57
2022/05/09 07:41:16;;;;;;;;;14.33;13.67;;;;;22.40;51.50;100361.66;6317221;20;2483582;-53
2022/05/09 07:43:45;;;;;;;;;14.00;13.00;;;;;23.38;48.51;100372.66;6316596;20;3513861;-57
2022/05/09 07:46:14;;;;;;;;;14.67;13.00;;;;;23.07;48.41;100369.56;6284022;20;3538803;-53
2022/05/09 07:49:03;;;;;;;;;16.33;15.00;;;;;23.74;47.82;100365.22;6288585;20;2483633;-53
2022/05/09 07:51:31;;;;;;;;;12.00;12.00;;;;;24.40;44.94;100362.75;6318191;20;2483695;-56
2022/05/09 07:54:00;;;;;;;;;12.00;12.00;;;;;24.23;45.21;100359.97;6316475;20;2489935;-58
2022/05/09 07:56:28;;;;;;;;;13.33;13.33;;;;;25.22;43.90;100366.50;6318157;20;2483603;-54
2022/05/09 07:58:57;;;;;;;;;12.00;11.33;;;;;25.01;43.79;100366.97;6319994;20;2797146;-57
2022/05/09 08:01:26;;;;;;;;;14.33;13.00;;;;;23.88;44.83;100367.38;6317858;20;3541890;-57
2022/05/09 08:03:57;;;;;;;;;13.67;13.67;;;;;24.96;45.05;100366.63;6315991;20;3539830;-55
2022/05/09 08:06:25;;;;;;;;;13.33;12.67;;;;;24.62;43.35;100367.66;6285939;20;2492022;-57
2022/05/09 08:08:54;;;;;;;;;15.00;14.33;;;;;24.39;43.38;100361.03;6316544;20;2483601;-57
2022/05/09 08:11:23;;;;;;;;;15.00;13.67;;;;;24.77;43.46;100364.22;6314736;20;3534027;-57
2022/05/09 08:13:52;;;;;;;;;10.33;10.33;;;;;25.62;42.13;100375.75;6284047;20;3515908;-55
2022/05/09 08:16:25;;;;;;;;;12.67;11.00;;;;;25.02;42.27;100374.22;6287923;20;3511763;-58
2022/05/09 08:18:54;;;;;;;;;11.00;10.00;;;;;25.23;43.41;100372.88;6323905;20;2776333;-57
2022/05/09 08:21:22;;;;;;;;;11.00;9.67;;;;;23.79;45.09;100368.34;6317363;20;3514031;-57
2022/05/09 08:23:51;;;;;;;;;15.67;14.00;;;;;24.66;44.24;100377.25;6316408;20;2489855;-56
2022/05/09 08:26:21;;;;;;;;;13.00;13.00;;;;;25.56;43.42;100374.53;6316268;20;3528357;-54
2022/05/09 08:28:53;;;;;;;;;13.67;13.00;;;;;25.63;42.68;100382.94;6285663;20;2483837;-55
2022/05/09 08:31:22;;;;;;;;;13.00;11.67;;;;;25.93;41.41;100380.47;6316661;20;2487781;-52
2022/05/09 08:33:53;;;;;;;;;13.00;13.00;;;;;25.07;42.80;100371.81;6319107;20;3525292;-53
2022/05/09 08:39:09;;;;;;;;;12.00;12.00;;;;;25.80;41.72;100378.25;6320308;20;2483661;-52
2022/05/09 08:42:05;;;;;;;;;17.50;15.00;;;;;25.12;43.29;100374.91;6315194;20;2809627;-53
2022/05/09 08:44:42;;;;;;;;;14.00;13.00;;;;;25.54;42.51;100373.88;6282239;20;3531548;-52
2022/05/09 08:47:29;;;;;;;;;18.50;17.00;;;;;25.93;42.78;100380.47;6284274;20;2826307;-52
2022/05/09 08:50:29;;;;;;;;;13.33;12.00;;;;;25.89;42.27;100379.13;6284232;20;3526505;-51
2022/05/09 08:53:07;;;;;;;;;12.67;11.33;;;;;24.86;42.66;100376.97;6285860;20;2483626;-50
2022/05/09 08:55:41;;;;;;;;;16.00;14.00;;;;;25.31;42.80;100372.88;6315342;20;2483593;-51
2022/05/09 08:58:51;;;;;;;;;15.00;15.00;;;;;25.77;43.29;100373.97;6312232;20;2810781;-51
2022/05/09 09:01:39;;;;;;;;;12.33;12.33;;;;;25.07;44.32;100377.31;6287034;20;2483550;-53
2022/05/09 09:04:29;;;;;;;;;14.33;11.00;;;;;25.17;44.03;100378.03;6311194;20;3531487;-52
2022/05/09 09:07:59;;;;;;;;;12.00;12.00;;;;;25.46;44.18;100371.13;6281205;20;2483615;-49
2022/05/09 09:10:55;;;;;;;;;15.33;15.33;;;;;24.89;43.18;100373.88;6317586;20;3547143;-51
2022/05/09 09:13:49;;;;;;;;;12.00;12.00;;;;;25.11;41.27;100375.06;6310857;20;3540927;-50
2022/05/09 09:17:03;;;;;;;;;10.67;10.67;;;;;26.01;41.54;100375.84;6281230;20;3507537;-49
2022/05/09 09:20:34;;;;;;;;;14.00;12.67;;;;;25.60;42.76;100378.66;6318796;20;2802346;-56
2022/05/09 09:23:51;;;;;;;;;12.33;12.33;;;;;24.85;43.48;100375.22;6311477;20;3523175;-51
2022/05/09 09:26:48;;;;;;;;;13.67;13.67;;;;;25.74;41.56;100373.47;6315062;20;3526292;-53
2022/05/09 09:29:43;;;;;;;;;11.00;11.00;;;;;26.27;42.39;100378.25;6312273;20;3535489;-53
2022/05/09 09:32:18;;;;;;;;;16.00;15.33;;;;;26.11;42.66;100380.25;6312764;20;2483704;-53
2022/05/09 09:35:14;;;;;;;;;19.33;15.67;;;;;26.30;42.14;100379.81;6314975;20;3552407;-55
2022/05/09 09:38:40;;;;;;;;;14.00;13.00;;;;;25.97;41.81;100373.59;6278791;20;2802367;-50
2022/05/09 09:41:34;;;;;;;;;12.33;11.67;;;;;26.08;40.47;100375.09;6280803;20;2487805;-51
2022/05/09 09:44:14;;;;;;;;;12.67;12.67;;;;;25.68;42.42;100376.94;6313285;20;2483692;-54
2022/05/09 09:47:06;;;;;;;;;11.50;11.50;;;;;26.13;40.55;100372.69;6319549;20;2483634;-51
2022/05/09 09:49:41;;;;;;;;;14.00;13.33;;;;;25.93;41.43;100373.06;6316288;20;3520134;-50
2022/05/09 09:52:41;;;;;;;;;13.67;13.67;;;;;25.16;43.22;100364.44;6317327;20;3521078;-53
2022/05/09 09:55:37;;;;;;;;;12.00;11.00;;;;;25.29;42.35;100364.78;6314243;20;3509698;-51
2022/05/09 09:58:26;;;;;;;;;15.00;13.00;;;;;25.71;40.71;100362.81;6314313;20;3523276;-50
2022/05/09 10:01:24;;;;;;;;;15.33;15.33;;;;;26.63;39.81;100365.91;6314837;20;3542963;-50
2022/05/09 10:04:25;;;;;;;;;14.00;14.00;;;;;26.26;39.89;100360.03;6312350;20;2798225;-48
2022/05/09 10:07:08;;;;;;;;;13.00;13.00;;;;;26.00;41.81;100357.59;6283330;20;3531637;-53
2022/05/09 10:10:01;;;;;;;;;12.00;12.00;;;;;26.36;41.16;100348.81;6281938;20;3518040;-52
2022/05/09 10:12:33;;;;;;;;;15.00;14.00;;;;;26.06;39.75;100351.34;6285518;20;3541905;-54
2022/05/09 10:15:28;;;;;;;;;19.00;18.67;;;;;26.65;40.07;100345.38;6313690;20;2843992;-50
2022/05/09 10:17:59;;;;;;;;;13.67;11.33;;;;;26.23;38.59;100340.28;6312813;20;3535725;-57
2022/05/09 10:20:32;;;;;;;;;12.67;12.00;;;;;25.89;38.71;100340.63;6276395;20;3537861;-54
2022/05/09 10:26:29;;;;;;;;;12.33;12.33;;;;;26.57;37.28;100334.44;6278902;20;3529435;-49
2022/05/09 10:29:15;;;;;;;;;12.00;12.00;;;;;25.33;39.28;100324.03;6277590;20;3528383;-51
2022/05/09 10:31:55;;;;;;;;;12.00;12.00;;;;;25.01;40.61;100327.66;6285695;20;2483654;-57
2022/05/09 10:35:36;;;;;;;;;14.00;13.00;;;;;26.24;38.98;100328.22;6310861;20;3526304;-50
2022/05/09 10:38:19;;;;;;;;;13.33;11.67;;;;;26.82;36.46;100326.81;6274948;20;3522154;-55
2022/05/09 10:41:13;;;;;;;;;16.00;14.67;;;;;26.90;36.76;100324.00;6273789;20;3546062;-53
2022/05/09 10:44:07;;;;;;;;;13.00;13.00;;;;;27.40;37.06;100326.34;6277096;20;3530513;-54
2022/05/09 10:47:43;;;;;;;;;14.67;14.67;;;;;27.75;36.14;100316.44;6278325;20;2483687;-48
2022/05/09 10:50:25;;;;;;;;;13.00;12.00;;;;;26.82;36.92;100318.56;6308055;20;3537726;-50
2022/05/09 10:53:23;;;;;;;;;22.33;21.00;;;;;25.77;37.94;100304.34;6306772;20;3575286;-52
2022/05/09 10:56:12;;;;;;;;;12.33;12.00;;;;;25.95;37.80;100304.97;6310246;20;2483670;-51
2022/05/09 10:59:06;;;;;;;;;78.00;67.67;;;;;25.14;41.69;100308.75;6305708;20;1919203;-50
2022/05/09 11:02:00;;;;;;;;;11.00;11.00;;;;;24.95;38.05;100297.09;6307397;20;3513835;-49
2022/05/09 11:04:35;;;;;;;;;10.67;10.67;;;;;25.12;37.96;100297.97;6309192;20;2483723;-49
2022/05/09 11:07:35;;;;;;;;;12.33;12.33;;;;;25.07;38.14;100288.53;6307500;20;2485878;-51
2022/05/09 11:10:42;;;;;;;;;11.67;10.00;;;;;25.58;40.12;100294.59;6310286;20;3512795;-50
2022/05/09 11:13:34;;;;;;;;;11.00;11.00;;;;;25.87;39.82;100295.91;6308551;20;3533664;-53
2022/05/09 11:16:13;;;;;;;;;14.67;13.00;;;;;26.17;39.91;100303.34;6276651;20;3515892;-53
2022/05/09 11:19:35;;;;;;;;;14.00;12.00;;;;;25.63;39.21;100295.78;6276939;20;3535733;-54
2022/05/09 11:22:32;;;;;;;;;11.33;10.00;;;;;25.53;38.63;100292.38;6281204;20;3512949;-51
2022/05/09 11:25:42;;;;;;;;;11.00;9.00;;;;;25.12;40.13;100297.97;6313635;20;2772284;-50
2022/05/09 11:28:14;;;;;;;;;11.33;11.33;;;;;24.81;42.12;100300.56;6309014;20;2786708;-49
2022/05/09 11:31:12;;;;;;;;;11.67;11.67;;;;;23.93;43.77;100312.00;6315457;20;2786726;-51
2022/05/09 11:34:11;;;;;;;;;10.67;10.00;;;;;23.45;45.47;100313.47;6304333;20;3515995;-53
2022/05/09 11:37:40;;;;;;;;;13.67;12.00;;;;;22.83;48.31;100310.78;6278401;20;3539897;-51
2022/05/09 11:40:39;;;;;;;;;12.86;12.00;;;;;22.66;48.54;100331.66;6306131;20;3530483;-52
2022/05/09 11:43:54;;;;;;;;;12.00;12.00;;;;;21.74;52.64;100327.19;6313941;20;3529405;-52
2022/05/09 11:47:15;;;;;;;;;12.00;10.67;;;;;20.34;62.52;100315.00;6287148;20;2794098;-48